Ashland, Montana
Current Conditions -  °F | °C
As of 4:53 PM on Saturday 22 Nov 2014 (Local Time) from KMLS Reporting Station
Overcast Overcast  
Wind Chill:   Ceiling: 9000
Heat Index:   Visibility: 10mi
Dew Point:   Wind: 17mph
Humidity: 61%   Direction: 240°WSW
Pressure: 29.34"   Gusts: NA
Location:  45.62°N, 106.31°W
Report Text: KMLS 222353Z AUTO 24015KT 10SM BKN090 OVC100 08/01 A2934 RMK AO2 SLP945 60000 T00830011 10100 20028 53005
Loading
Personal Weather Stations






























Interactive Weather Map New forecast layout! Learn more

10-Day Weather Forecast

Advertisements
Track Severe Weather on mobile